Time;durP1;ratioP1;P1;durP2;ratioP2;P2;SDS_P1;SDS_P2;PMS_P1;PMS_P2;Temp;Humidity;BMP_temperature;BMP_pressure;BME280_temperature;BME280_humidity;BME280_pressure;Samples;Min_cycle;Max_cycle;Signal;HPM_P1;HPM_P2
2020/12/05 00:01:51;;;;;;;50.33;26.25;;;;;;;5.85;99.37;99726.41;5066616;28;20455;-68
2020/12/05 00:04:16;;;;;;;48.97;25.25;;;;;;;5.96;99.67;99753.03;5070508;28;20043;-69
2020/12/05 00:06:42;;;;;;;46.95;25.05;;;;;;;5.86;99.26;99729.91;5073087;28;20036;-68
2020/12/05 00:09:07;;;;;;;48.30;25.40;;;;;;;5.90;99.45;99736.72;5053161;28;20033;-68
2020/12/05 00:11:33;;;;;;;48.08;24.55;;;;;;;5.98;99.47;99750.25;5072668;28;20024;-69
2020/12/05 00:13:59;;;;;;;52.53;26.10;;;;;;;5.97;99.79;99749.38;5068682;28;20064;-68
2020/12/05 00:16:24;;;;;;;51.22;26.27;;;;;;;5.93;99.91;99747.13;5070497;28;20032;-68
2020/12/05 00:18:54;;;;;;;54.45;26.60;;;;;;;5.87;99.82;99732.44;5090083;28;20020;-68
2020/12/05 00:21:21;;;;;;;51.45;25.65;;;;;;;5.91;100.00;99749.03;5055681;28;20031;-68
2020/12/05 00:23:46;;;;;;;52.58;26.98;;;;;;;5.94;100.00;99752.28;5058056;28;20487;-68
2020/12/05 00:26:16;;;;;;;50.90;25.90;;;;;;;5.76;100.00;99708.47;5064521;28;20024;-68
2020/12/05 00:28:42;;;;;;;47.92;25.70;;;;;;;5.92;100.00;99738.28;5069204;28;20032;-68
2020/12/05 00:31:08;;;;;;;49.90;24.63;;;;;;;5.92;100.00;99740.94;5071735;28;20047;-68
2020/12/05 00:33:33;;;;;;;50.05;24.98;;;;;;;5.93;100.00;99742.63;5070242;28;20033;-68
2020/12/05 00:35:59;;;;;;;46.45;24.08;;;;;;;5.95;100.00;99746.03;5070918;28;20017;-68
2020/12/05 00:38:24;;;;;;;43.90;24.33;;;;;;;6.06;100.00;99756.66;5071073;28;20400;-68
2020/12/05 00:40:50;;;;;;;48.47;25.50;;;;;;;5.96;100.00;99744.19;5059847;28;20111;-68
2020/12/05 00:43:15;;;;;;;46.45;24.33;;;;;;;6.06;100.00;99763.81;5071504;28;20035;-68
2020/12/05 00:45:41;;;;;;;50.85;26.83;;;;;;;5.89;100.00;99724.34;5071877;28;20036;-68
2020/12/05 00:48:06;;;;;;;47.20;24.30;;;;;;;6.12;100.00;99758.00;5071435;28;20173;-68
2020/12/05 00:50:32;;;;;;;50.65;26.60;;;;;;;6.14;100.00;99756.94;5071370;28;20025;-68
2020/12/05 00:52:57;;;;;;;47.15;23.92;;;;;;;6.11;100.00;99754.50;5071036;28;20388;-68
2020/12/05 00:55:23;;;;;;;44.63;22.45;;;;;;;6.05;100.00;99738.16;5074158;28;20032;-68
2020/12/05 00:57:48;;;;;;;50.33;25.88;;;;;;;5.98;100.00;99731.63;5064312;28;20034;-68
2020/12/05 01:00:16;;;;;;;44.25;23.90;;;;;;;6.18;100.00;99757.50;5071435;28;20029;-68
2020/12/05 01:02:41;;;;;;;50.67;25.92;;;;;;;6.08;100.00;99735.25;5070060;28;20032;-68
2020/12/05 01:05:07;;;;;;;50.58;24.20;;;;;;;6.15;100.00;99753.28;5071478;28;20016;-68
2020/12/05 01:07:32;;;;;;;45.33;24.20;;;;;;;6.19;100.00;99757.41;5071028;28;20094;-67
2020/12/05 01:09:58;;;;;;;51.53;24.88;;;;;;;6.19;100.00;99756.56;5060302;28;20052;-68
2020/12/05 01:12:24;;;;;;;45.58;22.42;;;;;;;6.14;100.00;99746.28;5071053;28;20086;-67
2020/12/05 01:14:50;;;;;;;44.20;24.52;;;;;;;6.22;100.00;99767.81;5070753;28;20024;-68
2020/12/05 01:17:15;;;;;;;43.00;23.63;;;;;;;6.26;100.00;99760.44;5070683;28;20046;-67
2020/12/05 01:19:41;;;;;;;45.45;22.52;;;;;;;6.08;100.00;99737.91;5070925;28;20412;-68
2020/12/05 01:22:07;;;;;;;42.28;22.83;;;;;;;6.11;100.00;99741.19;5071073;28;20035;-67
2020/12/05 01:24:32;;;;;;;43.97;23.83;;;;;;;6.19;100.00;99752.06;5070972;28;20024;-68
2020/12/05 01:26:58;;;;;;;48.35;23.63;;;;;;;6.27;100.00;99764.78;5070780;28;20032;-67
2020/12/05 01:29:23;;;;;;;43.53;23.90;;;;;;;6.29;100.00;99769.00;5058041;28;20430;-67
2020/12/05 01:31:49;;;;;;;45.85;25.17;;;;;;;6.31;100.00;99769.75;5071191;28;20024;-68
2020/12/05 01:34:15;;;;;;;45.10;23.52;;;;;;;6.32;100.00;99776.75;5070624;28;20052;-68
2020/12/05 01:36:47;;;;;;;43.75;22.33;;;;;;;6.30;100.00;99775.19;5069602;28;20715;-68
2020/12/05 01:39:12;;;;;;;44.00;22.50;;;;;;;6.28;100.00;99771.78;5070973;28;20063;-68
2020/12/05 01:41:38;;;;;;;42.10;23.50;;;;;;;6.16;100.00;99740.84;5070313;28;20059;-67
2020/12/05 01:44:04;;;;;;;43.67;23.55;;;;;;;6.18;100.00;99742.41;5070860;28;20447;-68
2020/12/05 01:46:41;;;;;;;42.83;23.88;;;;;;;6.27;100.00;99770.09;5064686;28;20568;-68
2020/12/05 01:49:09;;;;;;;42.55;23.40;;;;;;;6.26;100.00;99766.59;5068668;28;20486;-68
2020/12/05 01:51:38;;;;;;;44.33;23.45;;;;;;;6.27;100.00;99762.97;5070254;28;20028;-68
2020/12/05 01:54:07;;;;;;;41.00;23.48;;;;;;;6.25;100.00;99767.56;5068141;28;20024;-68
2020/12/05 01:56:32;;;;;;;43.17;22.88;;;;;;;6.14;100.00;99746.28;5069211;28;20027;-68
2020/12/05 01:58:58;;;;;;;46.00;23.73;;;;;;;6.24;100.00;99770.34;5070343;28;20028;-67
2020/12/05 02:01:26;;;;;;;38.55;21.75;;;;;;;6.27;100.00;99776.28;5069738;28;20470;-67
2020/12/05 02:03:56;;;;;;;43.90;23.08;;;;;;;6.25;100.00;99769.38;5069680;28;20105;-68
2020/12/05 02:06:27;;;;;;;46.13;23.58;;;;;;;6.26;100.00;99776.41;5068649;28;20111;-67
2020/12/05 02:09:07;;;;;;;46.20;23.33;;;;;;;6.26;100.00;99773.75;5070063;28;20043;-68
2020/12/05 02:11:39;;;;;;;46.28;22.40;;;;;;;6.14;100.00;99751.59;5078671;28;20399;-68
2020/12/05 02:14:08;;;;;;;43.50;23.17;;;;;;;6.19;100.00;99757.41;5067862;28;20074;-68
2020/12/05 02:16:34;;;;;;;40.15;22.02;;;;;;;6.14;100.00;99756.94;5069052;28;20033;-68
2020/12/05 02:19:01;;;;;;;43.78;22.83;;;;;;;6.18;100.00;99762.84;5069728;28;20039;-68
2020/12/05 02:21:29;;;;;;;40.60;22.80;;;;;;;6.09;100.00;99748.44;5069844;28;20487;-68
2020/12/05 02:23:59;;;;;;;47.15;23.92;;;;;;;6.21;100.00;99765.25;5057832;28;20024;-68
2020/12/05 02:26:27;;;;;;;42.90;22.92;;;;;;;6.11;100.00;99750.97;5068595;28;20479;-68
2020/12/05 02:28:53;;;;;;;43.47;22.73;;;;;;;6.21;100.00;99766.13;5068636;28;20028;-68
2020/12/05 02:31:18;;;;;;;45.70;24.45;;;;;;;6.21;100.00;99774.09;5070168;28;20028;-68
2020/12/05 02:33:44;;;;;;;46.13;23.10;;;;;;;6.20;100.00;99761.78;5069455;28;20036;-68
2020/12/05 02:36:11;;;;;;;44.70;22.80;;;;;;;6.12;100.00;99750.88;5069647;28;20017;-68
2020/12/05 02:39:00;;;;;;;43.88;23.73;;;;;;;6.18;100.00;99768.16;5069372;28;20040;-68
2020/12/05 02:41:27;;;;;;;44.33;23.10;;;;;;;6.14;100.00;99761.41;5083145;28;20024;-68
2020/12/05 02:43:52;;;;;;;42.85;22.52;;;;;;;6.16;100.00;99770.13;5069322;28;20029;-68
2020/12/05 02:46:18;;;;;;;41.83;22.83;;;;;;;5.98;100.00;99747.59;5071337;28;20020;-68
2020/12/05 02:48:44;;;;;;;46.35;22.40;;;;;;;6.15;100.00;99765.75;5069379;28;20080;-68
2020/12/05 02:51:09;;;;;;;45.22;23.45;;;;;;;6.01;100.00;99758.84;5069262;28;20126;-67
2020/12/05 02:53:35;;;;;;;41.17;22.83;;;;;;;5.90;100.00;99737.53;5068770;28;20052;-68
2020/12/05 02:56:00;;;;;;;44.45;22.75;;;;;;;5.96;100.00;99762.81;5069419;28;20079;-68
2020/12/05 02:58:25;;;;;;;45.58;23.63;;;;;;;5.93;100.00;99758.59;5069425;28;20033;-68
2020/12/05 03:00:51;;;;;;;44.50;23.08;;;;;;;5.94;100.00;99748.81;5068809;28;20059;-68
2020/12/05 03:03:16;;;;;;;41.40;21.75;;;;;;;6.02;100.00;99757.88;5068982;28;20229;-68
2020/12/05 03:05:42;;;;;;;49.70;24.77;;;;;;;5.96;100.00;99761.00;5069096;28;20027;-68
2020/12/05 03:08:07;;;;;;;45.67;23.08;;;;;;;5.88;100.00;99742.16;5056208;28;20181;-68
2020/12/05 03:10:33;;;;;;;44.08;22.65;;;;;;;5.95;100.00;99762.00;5068991;28;20090;-68
2020/12/05 03:12:58;;;;;;;41.67;22.88;;;;;;;6.01;100.00;99766.84;5057456;28;20058;-68
2020/12/05 03:15:24;;;;;;;45.47;23.50;;;;;;;5.92;100.00;99751.59;5068608;28;20048;-67
2020/12/05 03:17:50;;;;;;;39.90;22.63;;;;;;;5.88;100.00;99755.47;5068671;28;20028;-67
2020/12/05 03:20:15;;;;;;;44.92;24.02;;;;;;;5.84;100.00;99753.16;5068789;28;20050;-67
2020/12/05 03:22:40;;;;;;;41.63;22.73;;;;;;;5.91;100.00;99781.84;5066936;28;20075;-68
2020/12/05 03:25:06;;;;;;;46.30;24.58;;;;;;;5.88;100.00;99778.53;5058680;28;20021;-67
2020/12/05 03:27:31;;;;;;;44.53;25.15;;;;;;;5.88;100.00;99779.41;5068518;28;20490;-67
2020/12/05 03:29:57;;;;;;;45.83;23.92;;;;;;;5.78;100.00;99767.75;5068570;28;20529;-67
2020/12/05 03:32:29;;;;;;;48.47;25.15;;;;;;;5.77;100.00;99765.19;5068606;28;20032;-68
2020/12/05 03:34:55;;;;;;;46.05;24.17;;;;;;;5.74;100.00;99773.41;5068632;28;20032;-68
2020/12/05 03:37:23;;;;;;;40.78;23.23;;;;;;;5.64;100.00;99757.28;5068382;28;20047;-68
2020/12/05 03:39:48;;;;;;;46.97;24.67;;;;;;;5.68;100.00;99773.88;5054512;28;20218;-68
2020/12/05 03:42:14;;;;;;;45.20;24.80;;;;;;;5.74;100.00;99795.53;5068657;28;20434;-68
2020/12/05 03:44:39;;;;;;;46.03;24.08;;;;;;;5.70;100.00;99803.84;5068304;28;20023;-68
2020/12/05 03:47:05;;;;;;;46.97;24.05;;;;;;;5.71;100.00;99811.72;5068547;28;20031;-68
2020/12/05 03:49:32;;;;;;;48.47;24.55;;;;;;;5.57;100.00;99781.81;5068290;28;20383;-66
2020/12/05 03:52:01;;;;;;;44.88;24.73;;;;;;;5.66;100.00;99805.06;5069709;28;20046;-68
2020/12/05 03:54:26;;;;;;;45.28;24.10;;;;;;;5.52;100.00;99782.19;5068483;28;20450;-68
2020/12/05 03:56:52;;;;;;;44.70;23.73;;;;;;;5.61;100.00;99808.06;5067994;28;20150;-68
2020/12/05 03:59:17;;;;;;;45.40;24.55;;;;;;;5.62;100.00;99806.25;5068268;28;20033;-68
2020/12/05 04:01:43;;;;;;;42.55;23.33;;;;;;;5.58;100.00;99805.63;5068280;28;20016;-68
2020/12/05 04:04:08;;;;;;;46.28;23.88;;;;;;;5.59;100.00;99811.81;5068326;28;20509;-67
2020/12/05 04:06:34;;;;;;;48.90;24.20;;;;;;;5.50;100.00;99799.19;5068451;28;20024;-68
2020/12/05 04:08:59;;;;;;;45.50;23.58;;;;;;;5.45;100.00;99791.56;5070853;28;20043;-68
2020/12/05 04:11:25;;;;;;;49.35;23.77;;;;;;;5.49;100.00;99802.84;5067347;28;20094;-68
2020/12/05 04:13:50;;;;;;;41.55;22.77;;;;;;;5.51;100.00;99803.56;5067068;28;20031;-67
2020/12/05 04:16:16;;;;;;;45.55;24.60;;;;;;;5.27;100.00;99769.03;5049885;28;20055;-68
2020/12/05 04:18:41;;;;;;;44.88;23.80;;;;;;;5.54;100.00;99798.84;5067331;28;20056;-68
2020/12/05 04:21:07;;;;;;;48.85;25.58;;;;;;;5.55;100.00;99805.88;5068718;28;20086;-68
2020/12/05 04:23:33;;;;;;;49.45;24.52;;;;;;;5.50;100.00;99797.41;5068196;28;20395;-68
2020/12/05 04:25:58;;;;;;;45.70;23.63;;;;;;;5.49;100.00;99790.41;5067584;28;20410;-67
2020/12/05 04:28:24;;;;;;;51.03;25.58;;;;;;;5.49;100.00;99795.72;5066848;28;20036;-67
2020/12/05 04:30:49;;;;;;;48.88;24.67;;;;;;;5.36;100.00;99768.34;5068446;28;20040;-67
2020/12/05 04:33:14;;;;;;;43.65;23.65;;;;;;;5.61;100.00;99805.41;5067662;28;20287;-67
2020/12/05 04:35:41;;;;;;;48.92;26.20;;;;;;;5.50;100.00;99802.72;5064431;28;20119;-68
2020/12/05 04:38:07;;;;;;;46.80;25.92;;;;;;;5.52;100.00;99797.28;5068771;28;20048;-67
2020/12/05 04:40:32;;;;;;;49.58;26.52;;;;;;;5.62;100.00;99809.78;5068213;28;20052;-68
2020/12/05 04:43:00;;;;;;;49.53;27.42;;;;;;;5.67;100.00;99820.06;5068518;28;20024;-67
2020/12/05 04:45:27;;;;;;;48.53;25.75;;;;;;;5.55;100.00;99797.06;5067469;28;20020;-68
2020/12/05 04:47:55;;;;;;;50.53;26.10;;;;;;;5.65;100.00;99822.00;5068653;28;20028;-68
2020/12/05 04:50:23;;;;;;;56.42;26.35;;;;;;;5.63;100.00;99816.78;5066932;28;20078;-68
2020/12/05 04:52:51;;;;;;;48.47;24.75;;;;;;;5.71;100.00;99832.19;5072402;28;20063;-67
2020/12/05 04:55:21;;;;;;;48.08;25.35;;;;;;;5.63;100.00;99824.75;5071835;28;20016;-67
2020/12/05 04:57:48;;;;;;;44.83;25.27;;;;;;;5.72;100.00;99844.50;5060642;28;20026;-68
2020/12/05 05:00:16;;;;;;;48.90;24.17;;;;;;;5.71;100.00;99842.81;5071857;28;20032;-68
2020/12/05 05:02:44;;;;;;;49.00;25.52;;;;;;;5.73;100.00;99847.03;5061596;28;20542;-68
2020/12/05 05:05:11;;;;;;;47.40;25.20;;;;;;;5.69;100.00;99837.59;5071952;28;20050;-68
2020/12/05 05:07:51;;;;;;;47.05;25.98;;;;;;;5.68;100.00;99837.72;5071997;28;20035;-68
2020/12/05 05:10:23;;;;;;;48.83;25.60;;;;;;;5.74;100.00;99854.06;5070556;28;20020;-68
2020/12/05 05:12:50;;;;;;;48.40;25.88;;;;;;;5.72;100.00;99850.69;5071222;28;20749;-68
2020/12/05 05:15:30;;;;;;;47.80;25.60;;;;;;;5.78;100.00;99868.84;5070273;28;20020;-68
2020/12/05 05:18:02;;;;;;;45.17;24.40;;;;;;;5.76;100.00;99857.47;5062804;28;20028;-68
2020/12/05 05:20:29;;;;;;;49.55;25.27;;;;;;;5.77;100.00;99869.78;5071497;28;20423;-68
2020/12/05 05:23:09;;;;;;;46.00;26.05;;;;;;;5.79;100.00;99878.53;5071542;28;20032;-68
2020/12/05 05:25:47;;;;;;;45.85;26.00;;;;;;;5.72;100.00;99865.78;5069653;28;20024;-68
2020/12/05 05:28:17;;;;;;;46.58;24.55;;;;;;;5.78;100.00;99882.16;5069820;28;20493;-68
2020/12/05 05:31:18;;;;;;;46.53;25.15;;;;;;;5.78;100.00;99882.16;5070946;28;20410;-68
2020/12/05 05:33:54;;;;;;;46.70;25.00;;;;;;;5.80;100.00;99898.81;5059464;28;20059;-68
2020/12/05 05:36:25;;;;;;;48.47;24.50;;;;;;;5.68;100.00;99875.78;5070011;28;20024;-68
2020/12/05 05:39:10;;;;;;;44.80;23.63;;;;;;;5.76;100.00;99885.88;5069956;28;20108;-68
2020/12/05 05:41:38;;;;;;;45.92;25.33;;;;;;;5.74;100.00;99885.16;5069475;28;20210;-69
2020/12/05 05:44:12;;;;;;;45.67;24.85;;;;;;;5.74;100.00;99893.97;5070131;28;20024;-68
2020/12/05 05:46:42;;;;;;;45.83;25.30;;;;;;;5.70;100.00;99889.84;5069057;28;20032;-68
2020/12/05 05:49:10;;;;;;;48.63;25.80;;;;;;;5.70;100.00;99903.13;5070277;28;20097;-69
2020/12/05 05:51:49;;;;;;;48.17;25.25;;;;;;;5.68;100.00;99907.72;5068606;28;20126;-68
2020/12/05 05:54:22;;;;;;;46.25;25.30;;;;;;;5.60;100.00;99909.25;5069765;28;20040;-69
2020/12/05 05:57:10;;;;;;;46.65;23.95;;;;;;;5.55;100.00;99898.94;5051990;28;20107;-69
2020/12/05 05:59:39;;;;;;;48.05;25.45;;;;;;;5.54;100.00;99907.03;5069208;28;20116;-68
2020/12/05 06:02:10;;;;;;;42.75;24.33;;;;;;;5.47;100.00;99911.13;5050834;28;20550;-69
2020/12/05 06:04:41;;;;;;;43.60;24.77;;;;;;;5.22;100.00;99877.50;5050805;28;20139;-68
2020/12/05 06:07:09;;;;;;;53.33;25.20;;;;;;;5.40;100.00;99925.81;5072334;28;20106;-68
2020/12/05 06:09:47;;;;;;;48.92;24.77;;;;;;;5.38;100.00;99920.63;5067716;28;20105;-69
2020/12/05 06:12:20;;;;;;;43.92;23.27;;;;;;;5.23;100.00;99895.16;5055675;28;20055;-69
2020/12/05 06:14:49;;;;;;;42.17;24.02;;;;;;;5.32;100.00;99910.44;5082963;28;20353;-69
2020/12/05 06:17:18;;;;;;;47.95;24.65;;;;;;;5.32;100.00;99904.28;5068206;28;20511;-69
2020/12/05 06:19:45;;;;;;;49.88;25.15;;;;;;;5.44;100.00;99914.84;5066285;28;20036;-69
2020/12/05 06:22:39;;;;;;;46.08;24.45;;;;;;;5.50;100.00;99919.72;5052643;28;20526;-69
2020/12/05 06:25:10;;;;;;;48.22;23.40;;;;;;;5.53;100.00;99919.50;5068341;28;20479;-69
2020/12/05 06:27:40;;;;;;;44.25;24.20;;;;;;;5.50;100.00;99908.22;5053870;28;20035;-69
2020/12/05 06:30:07;;;;;;;46.05;24.90;;;;;;;5.46;100.00;99904.97;5066896;28;20432;-69
2020/12/05 06:32:44;;;;;;;44.53;23.88;;;;;;;5.59;100.00;99928.84;5067051;28;20457;-69
2020/12/05 06:35:18;;;;;;;43.53;23.60;;;;;;;5.70;100.00;99932.41;5067007;28;20024;-68
2020/12/05 06:37:45;;;;;;;45.72;24.48;;;;;;;5.73;100.00;99932.19;5067962;28;20090;-69
2020/12/05 06:40:11;;;;;;;43.45;23.55;;;;;;;5.76;100.00;99928.44;5060399;28;20544;-69
2020/12/05 06:42:44;;;;;;;43.58;24.42;;;;;;;5.81;100.00;99936.94;5057018;28;20021;-68
2020/12/05 06:45:43;;;;;;;44.92;23.67;;;;;;;5.88;100.00;99933.75;5058212;28;20375;-69
2020/12/05 06:48:08;;;;;;;46.58;25.83;;;;;;;5.96;100.00;99939.31;5042511;28;20460;-69
2020/12/05 06:50:38;;;;;;;51.20;29.27;;;;;;;6.02;100.00;99940.69;5057471;28;20103;-69
2020/12/05 06:53:19;;;;;;;47.33;29.75;;;;;;;6.09;100.00;99942.75;5067114;28;20057;-69
2020/12/05 06:55:45;;;;;;;46.72;26.42;;;;;;;6.15;100.00;99939.66;5065794;28;20390;-69
2020/12/05 06:58:11;;;;;;;47.30;26.48;;;;;;;6.18;100.00;99926.09;5058001;28;20475;-68
2020/12/05 07:00:38;;;;;;;44.85;24.67;;;;;;;6.32;100.00;99941.88;5058812;28;20040;-69
2020/12/05 07:03:06;;;;;;;42.05;25.40;;;;;;;6.42;100.00;99942.84;5060672;28;20033;-69
2020/12/05 07:05:45;;;;;;;40.05;23.42;;;;;;;6.48;100.00;99941.56;5062672;28;20016;-69
2020/12/05 07:08:28;;;;;;;38.13;22.27;;;;;;;6.62;100.00;99950.16;5065099;28;20812;-69
2020/12/05 07:11:12;;;;;;;40.60;21.52;;;;;;;6.71;100.00;99948.63;5051012;28;20459;-68
2020/12/05 07:13:45;;;;;;;39.50;21.83;;;;;;;6.85;100.00;99951.91;5076627;28;20501;-69
2020/12/05 07:16:12;;;;;;;36.00;19.75;;;;;;;6.86;100.00;99944.72;5051127;28;20518;-69
2020/12/05 07:18:55;;;;;;;36.83;20.48;;;;;;;7.03;100.00;99954.91;5058787;28;20032;-69
2020/12/05 07:21:22;;;;;;;37.80;20.90;;;;;;;7.12;100.00;99958.69;5065401;28;20024;-69
2020/12/05 07:23:48;;;;;;;36.08;20.30;;;;;;;6.97;100.00;99926.91;5066968;28;20111;-69
2020/12/05 07:26:15;;;;;;;37.65;21.55;;;;;;;7.21;100.00;99956.13;5066475;28;20037;-69
2020/12/05 07:28:49;;;;;;;35.78;20.88;;;;;;;7.27;100.00;99960.13;5065528;28;20078;-69
2020/12/05 07:31:16;;;;;;;35.92;20.17;;;;;;;7.35;100.00;99968.38;5066910;28;20485;-69
2020/12/05 07:33:42;;;;;;;34.00;19.35;;;;;;;7.38;100.00;99974.28;5053762;28;20039;-69
2020/12/05 07:36:11;;;;;;;37.60;20.30;;;;;;;7.32;100.00;99955.28;5066104;28;20033;-69
2020/12/05 07:38:38;;;;;;;32.35;19.60;;;;;;;7.46;100.00;99971.88;5065711;28;20035;-68
2020/12/05 07:41:08;;;;;;;33.38;19.08;;;;;;;7.53;100.00;99964.19;5059691;28;20020;-69
2020/12/05 07:43:33;;;;;;;36.00;20.02;;;;;;;7.60;100.00;99971.59;5049186;28;20433;-69
2020/12/05 07:46:06;;;;;;;33.65;18.45;;;;;;;7.63;100.00;99975.81;5059973;28;20020;-68
2020/12/05 07:48:31;;;;;;;32.90;19.23;;;;;;;7.64;100.00;99964.19;5048107;28;20036;-68
2020/12/05 07:50:57;;;;;;;32.42;18.45;;;;;;;7.62;100.00;99958.97;5066200;28;20371;-68
2020/12/05 07:53:27;;;;;;;28.58;15.95;;;;;;;7.82;100.00;99976.88;5065690;28;20047;-68
2020/12/05 07:55:53;;;;;;;32.28;18.25;;;;;;;7.83;100.00;99972.41;5066326;28;20075;-68
2020/12/05 07:58:19;;;;;;;34.50;17.90;;;;;;;7.88;100.00;99972.84;5066622;28;20032;-69
2020/12/05 08:00:44;;;;;;;29.42;18.48;;;;;;;7.93;100.00;99973.34;5051119;28;20052;-69
2020/12/05 08:03:18;;;;;;;32.70;18.45;;;;;;;7.93;100.00;99963.47;5059008;28;20062;-69
2020/12/05 08:06:17;;;;;;;27.17;16.38;;;;;;;8.07;100.00;99973.03;5064795;28;20037;-69
2020/12/05 08:08:50;;;;;;;29.10;17.17;;;;;;;8.09;100.00;99977.25;5065512;28;20055;-68
2020/12/05 08:11:16;;;;;;;29.92;17.20;;;;;;;8.13;100.00;99985.88;5064783;28;20501;-68
2020/12/05 08:13:41;;;;;;;28.27;17.27;;;;;;;8.20;100.00;99989.75;5066364;28;20224;-68
2020/12/05 08:16:08;;;;;;;29.65;16.58;;;;;;;8.28;100.00;99990.81;5061444;28;20036;-68
2020/12/05 08:18:35;;;;;;;31.80;16.95;;;;;;;8.25;100.00;99979.53;5051592;28;20486;-69
2020/12/05 08:21:03;;;;;;;26.98;15.55;;;;;;;8.36;100.00;99983.03;5066427;28;20396;-69
2020/12/05 08:23:31;;;;;;;28.70;15.90;;;;;;;8.46;100.00;99993.78;5062707;28;20039;-69
2020/12/05 08:26:03;;;;;;;26.30;15.50;;;;;;;8.50;100.00;99989.88;5067229;28;20042;-69
2020/12/05 08:28:31;;;;;;;26.75;15.90;;;;;;;8.57;100.00;99989.22;5068674;28;20036;-69
2020/12/05 08:31:03;;;;;;;25.98;15.48;;;;;;;8.64;100.00;99992.22;5056477;28;20240;-68
2020/12/05 08:33:28;;;;;;;25.25;15.05;;;;;;;8.70;100.00;99978.31;5067970;28;20119;-68
2020/12/05 08:35:54;;;;;;;28.88;16.65;;;;;;;8.79;100.00;99981.06;5069544;28;20679;-69
2020/12/05 08:38:24;;;;;;;25.10;14.68;;;;;;;8.85;100.00;99980.53;5069406;28;20134;-68
2020/12/05 08:41:01;;;;;;;24.05;14.57;;;;;;;8.83;100.00;99961.09;5069650;28;20086;-69
2020/12/05 08:43:26;;;;;;;22.88;14.50;;;;;;;9.01;99.88;99985.41;5067076;28;20025;-68
2020/12/05 08:45:52;;;;;;;21.15;13.07;;;;;;;9.02;100.00;99976.41;5069446;28;20073;-68
2020/12/05 08:48:18;;;;;;;23.33;14.88;;;;;;;9.08;99.14;99974.03;5069956;28;20097;-68
2020/12/05 08:50:44;;;;;;;20.23;13.60;;;;;;;9.09;99.11;99972.19;5074186;28;20051;-68
2020/12/05 08:53:12;;;;;;;23.38;14.45;;;;;;;9.21;99.07;99980.03;5053724;28;20053;-68
2020/12/05 08:55:43;;;;;;;22.73;13.98;;;;;;;9.23;98.36;99983.38;5047309;28;20384;-68
2020/12/05 08:58:09;;;;;;;21.17;13.25;;;;;;;9.31;97.90;99988.06;5049321;28;20056;-68
2020/12/05 09:00:35;;;;;;;19.55;12.50;;;;;;;9.38;97.61;99986.53;5049971;28;20503;-68
2020/12/05 09:03:02;;;;;;;21.55;13.55;;;;;;;9.39;97.37;99974.88;5049892;28;20163;-68
2020/12/05 09:05:28;;;;;;;20.15;13.88;;;;;;;9.32;97.28;99957.66;5047121;28;20515;-68
2020/12/05 09:07:56;;;;;;;22.70;13.90;;;;;;;9.52;96.77;99969.28;5049687;28;20048;-68
2020/12/05 09:10:22;;;;;;;21.13;13.18;;;;;;;9.50;96.44;99958.69;5051309;28;20438;-68
2020/12/05 09:12:47;;;;;;;20.40;12.52;;;;;;;9.47;96.05;99953.63;5049685;28;20472;-68
2020/12/05 09:15:13;;;;;;;19.42;12.45;;;;;;;9.58;95.66;99956.22;5050441;28;20028;-68
2020/12/05 09:17:39;;;;;;;20.50;12.60;;;;;;;9.60;95.34;99945.34;5051141;28;20039;-68
2020/12/05 09:20:18;;;;;;;19.67;12.27;;;;;;;9.74;95.26;99963.69;5049970;28;20108;-68
2020/12/05 09:22:47;;;;;;;20.92;12.10;;;;;;;9.82;94.95;99970.06;5048910;28;20037;-68
2020/12/05 09:25:24;;;;;;;19.85;13.38;;;;;;;9.83;94.76;99958.34;5050779;28;20472;-68
2020/12/05 09:27:50;;;;;;;20.65;13.07;;;;;;;9.80;94.20;99947.09;5050947;28;20017;-68
2020/12/05 09:30:15;;;;;;;20.58;12.68;;;;;;;9.92;94.24;99957.53;5050748;28;20040;-68
2020/12/05 09:32:43;;;;;;;17.48;11.57;;;;;;;9.95;93.99;99954.56;5050293;28;20025;-68
2020/12/05 09:35:09;;;;;;;16.60;10.88;;;;;;;9.99;93.71;99955.16;5050496;28;20116;-68
2020/12/05 09:37:35;;;;;;;19.55;11.32;;;;;;;10.06;93.44;99957.13;5049923;28;20032;-68
2020/12/05 09:40:01;;;;;;;18.00;11.27;;;;;;;10.13;92.92;99962.78;5050441;28;20029;-68
2020/12/05 09:42:26;;;;;;;16.90;10.27;;;;;;;10.18;92.72;99963.19;5050535;28;20531;-68
2020/12/05 09:44:52;;;;;;;15.93;10.10;;;;;;;10.22;92.30;99953.91;5059697;28;20059;-68
2020/12/05 09:47:18;;;;;;;18.02;10.80;;;;;;;10.19;91.90;99936.25;5050589;28;20234;-68
2020/12/05 09:49:43;;;;;;;13.90;10.18;;;;;;;10.29;91.09;99939.78;5050248;28;20036;-68
2020/12/05 09:52:09;;;;;;;17.25;10.98;;;;;;;10.33;91.31;99943.91;5060187;28;20041;-69
2020/12/05 09:54:37;;;;;;;16.75;10.48;;;;;;;10.39;90.90;99945.16;5049968;28;20037;-69
2020/12/05 09:57:04;;;;;;;16.73;10.15;;;;;;;10.40;90.54;99923.56;5061968;28;20025;-68
2020/12/05 09:59:29;;;;;;;16.08;10.38;;;;;;;10.42;90.41;99931.47;5052578;28;20041;-68
2020/12/05 10:01:55;;;;;;;15.32;10.00;;;;;;;10.56;89.92;99950.63;5047829;28;20040;-68
2020/12/05 10:04:21;;;;;;;13.68;10.13;;;;;;;10.56;89.68;99937.22;5040394;28;20463;-68
2020/12/05 10:06:46;;;;;;;15.80;9.27;;;;;;;10.61;89.16;99929.59;5045989;28;20044;-69
2020/12/05 10:09:12;;;;;;;15.63;9.90;;;;;;;10.67;88.92;99938.88;5049266;28;20036;-69
2020/12/05 10:11:37;;;;;;;15.98;10.35;;;;;;;10.67;88.44;99930.84;5047470;28;20029;-69
2020/12/05 10:14:04;;;;;;;15.05;9.40;;;;;;;10.78;88.44;99939.59;5062215;28;20111;-69
2020/12/05 10:16:31;;;;;;;14.15;9.18;;;;;;;10.75;88.37;99926.47;5047865;28;20841;-69
2020/12/05 10:18:57;;;;;;;15.23;10.10;;;;;;;10.81;88.08;99923.19;5031678;28;20017;-69
2020/12/05 10:21:22;;;;;;;13.85;9.18;;;;;;;10.90;87.56;99933.03;5031463;28;20823;-69
2020/12/05 10:23:48;;;;;;;15.23;9.95;;;;;;;10.93;86.90;99930.06;5046939;28;20027;-69
2020/12/05 10:26:13;;;;;;;17.67;10.70;;;;;;;10.85;87.04;99905.81;5031491;28;20032;-69
2020/12/05 10:28:38;;;;;;;12.32;9.20;;;;;;;10.96;86.83;99924.41;5064534;28;20119;-69
2020/12/05 10:31:04;;;;;;;14.23;10.00;;;;;;;11.04;87.34;99932.59;5066527;28;20059;-69
2020/12/05 10:33:29;;;;;;;14.85;9.43;;;;;;;11.14;86.97;99928.03;5066309;28;20036;-69
2020/12/05 10:35:55;;;;;;;13.23;8.63;;;;;;;11.14;86.56;99922.66;5068768;28;20025;-69
2020/12/05 10:38:20;;;;;;;15.45;10.13;;;;;;;11.18;86.81;99920.50;5039640;28;20072;-70
2020/12/05 10:40:46;;;;;;;12.90;8.48;;;;;;;11.22;85.66;99920.06;5048028;28;20060;-70
2020/12/05 10:43:11;;;;;;;13.30;8.60;;;;;;;11.28;85.46;99927.53;5048400;28;20045;-70
2020/12/05 10:45:37;;;;;;;13.95;9.13;;;;;;;11.33;85.11;99921.72;5030097;28;20029;-70
2020/12/05 10:48:02;;;;;;;11.68;7.75;;;;;;;11.43;84.13;99920.69;5047617;28;20083;-70
2020/12/05 10:50:28;;;;;;;12.50;8.82;;;;;;;11.45;83.83;99921.34;5047623;28;20056;-70
2020/12/05 10:52:53;;;;;;;14.10;8.60;;;;;;;11.50;83.20;99924.44;5057694;28;20066;-70
2020/12/05 10:55:18;;;;;;;12.18;8.52;;;;;;;11.58;82.84;99940.63;5047814;28;20028;-70
2020/12/05 10:57:44;;;;;;;14.80;8.73;;;;;;;11.51;83.38;99903.78;5067721;28;20044;-70
2020/12/05 11:00:09;;;;;;;13.32;8.88;;;;;;;11.66;82.89;99925.63;5067755;28;20094;-70
2020/12/05 11:02:35;;;;;;;12.05;8.50;;;;;;;11.76;82.46;99939.84;5066527;28;20059;-70
2020/12/05 11:05:00;;;;;;;13.85;9.15;;;;;;;11.64;82.26;99908.84;5054482;28;20017;-70
2020/12/05 11:07:26;;;;;;;12.80;8.38;;;;;;;11.69;81.95;99910.06;5074034;28;20048;-69
2020/12/05 11:09:51;;;;;;;13.93;9.20;;;;;;;11.83;82.06;99930.22;5056895;28;20494;-70
2020/12/05 11:12:17;;;;;;;14.43;9.13;;;;;;;11.78;82.07;99917.22;5065512;28;20043;-70
2020/12/05 11:14:42;;;;;;;13.55;9.10;;;;;;;11.88;82.12;99934.13;5064807;28;20085;-70
2020/12/05 11:17:10;;;;;;;18.05;8.18;;;;;;;11.81;81.93;99902.63;5049429;28;20033;-70
2020/12/05 11:19:36;;;;;;;15.60;8.45;;;;;;;11.93;81.79;99931.00;5048541;28;20063;-69
2020/12/05 11:22:01;;;;;;;14.77;9.15;;;;;;;11.93;81.62;99920.25;5045163;28;20437;-70
2020/12/05 11:24:27;;;;;;;14.25;9.05;;;;;;;11.99;81.71;99925.00;5049223;28;20032;-70